El Loa Airport
SCCF : now visible

Airfield :











YOU CAN JOIN US ON...

 
LOGIN :

Register | Disclaimer

   EN    FR    IT 

 









Legend :    VFR   Marginal VFR   IFR   Intensive IFR   Very Intensive IFR
Visi :
Ceiling :
>= 8 km
>= 3000ft
5 to 8 km
1000 to 3000 ft
1500m to 5 km
500 to 1000 ft
800 to 1500m
200 to 500 ft
< 800m
< 200 ft
Symbols :   Thunderstorms  Fog  Heavy snow  Heavy precipitations  Wind > 20 kt






- Airport Elevation : 7543 ft
- IATA code : CJC


SCCF - El Loa

CURRENT METAR :
  • 011200Z 11014KT CAVOK 11/M01 Q1027

EXPIRED METARs :
  • 011100Z 10015KT CAVOK 07/M02 Q1027
  • 011000Z 11014KT CAVOK 08/M02 Q1026

TAF TAF SCCF
Valid from the 01 at 12:00 until the 02 at 12:00 UTC


011033Z 0112/0212 11014KT CAVOK TX25/0119Z TN08/0210Z
BECMG 0117/0119 27024KT
BECMG 0200/0202 28014KT
BECMG 0205/0206 11013KT



MET'MAP, your aeronautical weather chart ! - Copyright ORBIFLY December 2007 - Disclaimer

ORBIFLY MET'MAP TEAM :

Programming & Development : Alexandra Zaïnal
Concept & original design : Baudouin d'Aumeries
Assistance for programming : Marc-Olivier Méhu
Technical & hardware support : Manuel Goepfert

Contact : metmap@orbifly.com




SOURCES & CREDITS :

   NOAA       Earth
Advisory